sensor_id;sensor_type;location;lat;lon;timestamp;temperature;humidity
46976;DHT22;32724;51.094;6.996;2022-11-20T00:01:42;3.00;99.90
46976;DHT22;32724;51.094;6.996;2022-11-20T00:04:08;3.00;99.90
46976;DHT22;32724;51.094;6.996;2022-11-20T00:06:33;3.00;99.90
46976;DHT22;32724;51.094;6.996;2022-11-20T00:08:59;3.00;99.90
46976;DHT22;32724;51.094;6.996;2022-11-20T00:11:25;2.90;99.90
46976;DHT22;32724;51.094;6.996;2022-11-20T00:13:52;2.90;99.90
46976;DHT22;32724;51.094;6.996;2022-11-20T00:16:19;2.90;99.90
46976;DHT22;32724;51.094;6.996;2022-11-20T00:18:45;2.80;99.90
46976;DHT22;32724;51.094;6.996;2022-11-20T00:23:42;2.80;99.90
46976;DHT22;32724;51.094;6.996;2022-11-20T00:26:09;2.80;99.90
46976;DHT22;32724;51.094;6.996;2022-11-20T00:28:35;2.80;99.90
46976;DHT22;32724;51.094;6.996;2022-11-20T00:31:05;2.80;99.90
46976;DHT22;32724;51.094;6.996;2022-11-20T00:33:31;2.80;99.90
46976;DHT22;32724;51.094;6.996;2022-11-20T00:36:00;2.90;99.90
46976;DHT22;32724;51.094;6.996;2022-11-20T00:38:26;2.90;99.90
46976;DHT22;32724;51.094;6.996;2022-11-20T00:40:58;2.90;99.90
46976;DHT22;32724;51.094;6.996;2022-11-20T00:43:24;2.90;99.90
46976;DHT22;32724;51.094;6.996;2022-11-20T00:45:50;2.90;99.90
46976;DHT22;32724;51.094;6.996;2022-11-20T00:48:15;2.90;99.90
46976;DHT22;32724;51.094;6.996;2022-11-20T00:50:41;2.90;99.90
46976;DHT22;32724;51.094;6.996;2022-11-20T00:53:06;2.90;99.90
46976;DHT22;32724;51.094;6.996;2022-11-20T00:55:32;3.00;99.90
46976;DHT22;32724;51.094;6.996;2022-11-20T00:57:58;2.90;99.90
46976;DHT22;32724;51.094;6.996;2022-11-20T01:00:23;2.90;99.90
46976;DHT22;32724;51.094;6.996;2022-11-20T01:02:48;2.90;99.90
46976;DHT22;32724;51.094;6.996;2022-11-20T01:05:14;2.90;99.90
46976;DHT22;32724;51.094;6.996;2022-11-20T01:07:39;2.80;99.90
46976;DHT22;32724;51.094;6.996;2022-11-20T01:10:05;2.90;99.90
46976;DHT22;32724;51.094;6.996;2022-11-20T01:12:31;2.90;99.90
46976;DHT22;32724;51.094;6.996;2022-11-20T01:14:56;2.90;99.90
46976;DHT22;32724;51.094;6.996;2022-11-20T01:17:21;2.90;99.90
46976;DHT22;32724;51.094;6.996;2022-11-20T01:19:50;2.90;99.90
46976;DHT22;32724;51.094;6.996;2022-11-20T01:22:16;2.90;99.90
46976;DHT22;32724;51.094;6.996;2022-11-20T01:24:41;2.90;99.90
46976;DHT22;32724;51.094;6.996;2022-11-20T01:27:06;2.90;99.90
46976;DHT22;32724;51.094;6.996;2022-11-20T01:29:32;2.90;99.90
46976;DHT22;32724;51.094;6.996;2022-11-20T01:31:57;2.90;99.90
46976;DHT22;32724;51.094;6.996;2022-11-20T01:34:23;2.90;99.90
46976;DHT22;32724;51.094;6.996;2022-11-20T01:36:49;2.90;99.90
46976;DHT22;32724;51.094;6.996;2022-11-20T01:39:16;2.90;99.90
46976;DHT22;32724;51.094;6.996;2022-11-20T01:41:42;2.80;99.90
46976;DHT22;32724;51.094;6.996;2022-11-20T01:47:07;2.80;99.90
46976;DHT22;32724;51.094;6.996;2022-11-20T01:49:38;2.80;99.90
46976;DHT22;32724;51.094;6.996;2022-11-20T01:52:05;2.90;99.90
46976;DHT22;32724;51.094;6.996;2022-11-20T01:54:36;2.90;99.90
46976;DHT22;32724;51.094;6.996;2022-11-20T01:57:03;2.80;99.90
46976;DHT22;32724;51.094;6.996;2022-11-20T01:59:31;2.80;99.90
46976;DHT22;32724;51.094;6.996;2022-11-20T02:01:56;3.00;99.90
46976;DHT22;32724;51.094;6.996;2022-11-20T02:04:22;2.90;99.90
46976;DHT22;32724;51.094;6.996;2022-11-20T02:06:49;2.90;99.90
46976;DHT22;32724;51.094;6.996;2022-11-20T02:09:16;2.90;99.90
46976;DHT22;32724;51.094;6.996;2022-11-20T02:11:42;2.80;99.90
46976;DHT22;32724;51.094;6.996;2022-11-20T02:14:08;2.90;99.90
46976;DHT22;32724;51.094;6.996;2022-11-20T02:16:35;3.00;99.90
46976;DHT22;32724;51.094;6.996;2022-11-20T02:19:02;2.90;99.90
46976;DHT22;32724;51.094;6.996;2022-11-20T02:24:04;2.90;99.90
46976;DHT22;32724;51.094;6.996;2022-11-20T02:26:31;2.90;99.90
46976;DHT22;32724;51.094;6.996;2022-11-20T02:28:58;2.80;99.90
46976;DHT22;32724;51.094;6.996;2022-11-20T02:31:24;2.90;99.90
46976;DHT22;32724;51.094;6.996;2022-11-20T02:33:56;2.90;99.90
46976;DHT22;32724;51.094;6.996;2022-11-20T02:36:22;3.00;99.90
46976;DHT22;32724;51.094;6.996;2022-11-20T02:38:48;3.00;99.90
46976;DHT22;32724;51.094;6.996;2022-11-20T02:41:14;3.00;99.90
46976;DHT22;32724;51.094;6.996;2022-11-20T02:43:40;2.90;99.90
46976;DHT22;32724;51.094;6.996;2022-11-20T02:46:06;2.90;99.90
46976;DHT22;32724;51.094;6.996;2022-11-20T02:48:32;2.80;99.90
46976;DHT22;32724;51.094;6.996;2022-11-20T02:50:57;2.80;99.90
46976;DHT22;32724;51.094;6.996;2022-11-20T02:53:24;2.70;99.90
46976;DHT22;32724;51.094;6.996;2022-11-20T02:55:49;2.60;99.90
46976;DHT22;32724;51.094;6.996;2022-11-20T02:58:15;2.70;99.90
46976;DHT22;32724;51.094;6.996;2022-11-20T03:00:40;2.70;99.90
46976;DHT22;32724;51.094;6.996;2022-11-20T03:03:06;2.60;99.90
46976;DHT22;32724;51.094;6.996;2022-11-20T03:05:31;2.60;99.90
46976;DHT22;32724;51.094;6.996;2022-11-20T03:07:56;2.60;99.90
46976;DHT22;32724;51.094;6.996;2022-11-20T03:10:22;2.50;99.90
46976;DHT22;32724;51.094;6.996;2022-11-20T03:12:52;2.60;99.90
46976;DHT22;32724;51.094;6.996;2022-11-20T03:15:17;2.40;99.90
46976;DHT22;32724;51.094;6.996;2022-11-20T03:17:43;2.50;99.90
46976;DHT22;32724;51.094;6.996;2022-11-20T03:20:08;2.50;99.90
46976;DHT22;32724;51.094;6.996;2022-11-20T03:22:34;2.40;99.90
46976;DHT22;32724;51.094;6.996;2022-11-20T03:24:59;2.50;99.90
46976;DHT22;32724;51.094;6.996;2022-11-20T03:27:25;2.50;99.90
46976;DHT22;32724;51.094;6.996;2022-11-20T03:29:50;2.40;99.90
46976;DHT22;32724;51.094;6.996;2022-11-20T03:32:16;2.30;99.90
46976;DHT22;32724;51.094;6.996;2022-11-20T03:34:41;2.20;99.90
46976;DHT22;32724;51.094;6.996;2022-11-20T03:37:07;2.20;99.90
46976;DHT22;32724;51.094;6.996;2022-11-20T03:39:32;2.20;99.90
46976;DHT22;32724;51.094;6.996;2022-11-20T03:41:57;2.40;99.90
46976;DHT22;32724;51.094;6.996;2022-11-20T03:44:23;2.30;99.90
46976;DHT22;32724;51.094;6.996;2022-11-20T03:46:49;2.20;99.90
46976;DHT22;32724;51.094;6.996;2022-11-20T03:49:14;2.30;99.90
46976;DHT22;32724;51.094;6.996;2022-11-20T03:51:39;2.30;99.90
46976;DHT22;32724;51.094;6.996;2022-11-20T03:54:06;2.30;99.90
46976;DHT22;32724;51.094;6.996;2022-11-20T03:56:33;2.40;99.90
46976;DHT22;32724;51.094;6.996;2022-11-20T03:58:59;2.40;99.90
46976;DHT22;32724;51.094;6.996;2022-11-20T04:01:25;2.40;99.90
46976;DHT22;32724;51.094;6.996;2022-11-20T04:03:52;2.50;99.90
46976;DHT22;32724;51.094;6.996;2022-11-20T04:06:19;2.50;99.90
46976;DHT22;32724;51.094;6.996;2022-11-20T04:08:44;2.50;99.90
46976;DHT22;32724;51.094;6.996;2022-11-20T04:13:41;2.50;99.90
46976;DHT22;32724;51.094;6.996;2022-11-20T04:16:08;2.50;99.90
46976;DHT22;32724;51.094;6.996;2022-11-20T04:18:33;2.50;99.90
46976;DHT22;32724;51.094;6.996;2022-11-20T04:20:59;2.50;99.90
46976;DHT22;32724;51.094;6.996;2022-11-20T04:23:24;2.50;99.90
46976;DHT22;32724;51.094;6.996;2022-11-20T04:25:50;2.50;99.90
46976;DHT22;32724;51.094;6.996;2022-11-20T04:28:16;2.60;99.90
46976;DHT22;32724;51.094;6.996;2022-11-20T04:30:41;2.60;99.90
46976;DHT22;32724;51.094;6.996;2022-11-20T04:33:07;2.60;99.90
46976;DHT22;32724;51.094;6.996;2022-11-20T04:35:35;2.60;99.90
46976;DHT22;32724;51.094;6.996;2022-11-20T04:40:29;2.60;99.90
46976;DHT22;32724;51.094;6.996;2022-11-20T04:42:55;2.60;99.90
46976;DHT22;32724;51.094;6.996;2022-11-20T04:45:21;2.60;99.90
46976;DHT22;32724;51.094;6.996;2022-11-20T04:47:47;2.60;99.90
46976;DHT22;32724;51.094;6.996;2022-11-20T04:50:13;2.60;99.90
46976;DHT22;32724;51.094;6.996;2022-11-20T04:52:38;2.70;99.90
46976;DHT22;32724;51.094;6.996;2022-11-20T04:55:04;2.80;99.90
46976;DHT22;32724;51.094;6.996;2022-11-20T04:57:29;2.70;99.90
46976;DHT22;32724;51.094;6.996;2022-11-20T04:59:55;2.80;99.90
46976;DHT22;32724;51.094;6.996;2022-11-20T05:02:20;2.80;99.90
46976;DHT22;32724;51.094;6.996;2022-11-20T05:04:46;2.80;99.90
46976;DHT22;32724;51.094;6.996;2022-11-20T05:09:50;2.80;99.90
46976;DHT22;32724;51.094;6.996;2022-11-20T05:12:15;2.80;99.90
46976;DHT22;32724;51.094;6.996;2022-11-20T05:14:41;2.80;99.90
46976;DHT22;32724;51.094;6.996;2022-11-20T05:17:09;2.70;99.90
46976;DHT22;32724;51.094;6.996;2022-11-20T05:19:34;2.70;99.90
46976;DHT22;32724;51.094;6.996;2022-11-20T05:22:00;2.80;99.90
46976;DHT22;32724;51.094;6.996;2022-11-20T05:24:25;2.70;99.90
46976;DHT22;32724;51.094;6.996;2022-11-20T05:26:51;2.70;99.90
46976;DHT22;32724;51.094;6.996;2022-11-20T05:29:16;2.70;99.90
46976;DHT22;32724;51.094;6.996;2022-11-20T05:31:41;2.70;99.90
46976;DHT22;32724;51.094;6.996;2022-11-20T05:34:07;2.70;99.90
46976;DHT22;32724;51.094;6.996;2022-11-20T05:36:33;2.70;99.90
46976;DHT22;32724;51.094;6.996;2022-11-20T05:38:58;2.70;99.90
46976;DHT22;32724;51.094;6.996;2022-11-20T05:41:24;2.80;99.90
46976;DHT22;32724;51.094;6.996;2022-11-20T05:43:50;2.80;99.90
46976;DHT22;32724;51.094;6.996;2022-11-20T05:46:17;2.80;99.90
46976;DHT22;32724;51.094;6.996;2022-11-20T05:48:43;2.90;99.90
46976;DHT22;32724;51.094;6.996;2022-11-20T05:51:10;2.90;99.90
46976;DHT22;32724;51.094;6.996;2022-11-20T05:53:36;2.80;99.90
46976;DHT22;32724;51.094;6.996;2022-11-20T05:56:02;2.80;99.90
46976;DHT22;32724;51.094;6.996;2022-11-20T05:58:28;2.80;99.90
46976;DHT22;32724;51.094;6.996;2022-11-20T06:00:54;2.90;99.90
46976;DHT22;32724;51.094;6.996;2022-11-20T06:03:19;2.90;99.90
46976;DHT22;32724;51.094;6.996;2022-11-20T06:05:45;2.90;99.90
46976;DHT22;32724;51.094;6.996;2022-11-20T06:08:10;2.80;99.90
46976;DHT22;32724;51.094;6.996;2022-11-20T06:10:36;2.80;99.90
46976;DHT22;32724;51.094;6.996;2022-11-20T06:13:01;2.80;99.90
46976;DHT22;32724;51.094;6.996;2022-11-20T06:15:27;2.70;99.90
46976;DHT22;32724;51.094;6.996;2022-11-20T06:17:53;2.80;99.90
46976;DHT22;32724;51.094;6.996;2022-11-20T06:20:19;2.80;99.90
46976;DHT22;32724;51.094;6.996;2022-11-20T06:22:44;2.70;99.90
46976;DHT22;32724;51.094;6.996;2022-11-20T06:25:10;2.70;99.90
46976;DHT22;32724;51.094;6.996;2022-11-20T06:27:35;2.70;99.90
46976;DHT22;32724;51.094;6.996;2022-11-20T06:30:01;2.60;99.90
46976;DHT22;32724;51.094;6.996;2022-11-20T06:32:26;2.50;99.90
46976;DHT22;32724;51.094;6.996;2022-11-20T06:34:52;2.50;99.90
46976;DHT22;32724;51.094;6.996;2022-11-20T06:37:17;2.60;99.90
46976;DHT22;32724;51.094;6.996;2022-11-20T06:39:42;2.70;99.90
46976;DHT22;32724;51.094;6.996;2022-11-20T06:42:08;2.30;99.90
46976;DHT22;32724;51.094;6.996;2022-11-20T06:44:34;2.30;99.90
46976;DHT22;32724;51.094;6.996;2022-11-20T06:46:59;2.20;99.90
46976;DHT22;32724;51.094;6.996;2022-11-20T06:49:25;2.10;99.90
46976;DHT22;32724;51.094;6.996;2022-11-20T06:51:50;1.90;99.90
46976;DHT22;32724;51.094;6.996;2022-11-20T06:54:16;1.80;99.90
46976;DHT22;32724;51.094;6.996;2022-11-20T06:56:41;1.70;99.90
46976;DHT22;32724;51.094;6.996;2022-11-20T06:59:07;1.70;99.90
46976;DHT22;32724;51.094;6.996;2022-11-20T07:01:32;1.70;99.90
46976;DHT22;32724;51.094;6.996;2022-11-20T07:03:58;1.60;99.90
46976;DHT22;32724;51.094;6.996;2022-11-20T07:06:23;1.50;99.90
46976;DHT22;32724;51.094;6.996;2022-11-20T07:08:52;1.50;99.90
46976;DHT22;32724;51.094;6.996;2022-11-20T07:11:17;1.40;99.90
46976;DHT22;32724;51.094;6.996;2022-11-20T07:13:43;1.30;99.90
46976;DHT22;32724;51.094;6.996;2022-11-20T07:16:08;1.30;99.90
46976;DHT22;32724;51.094;6.996;2022-11-20T07:18:34;1.30;99.90
46976;DHT22;32724;51.094;6.996;2022-11-20T07:21:04;1.30;99.90
46976;DHT22;32724;51.094;6.996;2022-11-20T07:23:30;1.30;99.90
46976;DHT22;32724;51.094;6.996;2022-11-20T07:25:55;1.40;99.90
46976;DHT22;32724;51.094;6.996;2022-11-20T07:28:21;1.40;99.90
46976;DHT22;32724;51.094;6.996;2022-11-20T07:30:50;1.30;99.90
46976;DHT22;32724;51.094;6.996;2022-11-20T07:33:15;1.20;99.90
46976;DHT22;32724;51.094;6.996;2022-11-20T07:35:41;1.10;99.90
46976;DHT22;32724;51.094;6.996;2022-11-20T07:38:06;1.00;99.90
46976;DHT22;32724;51.094;6.996;2022-11-20T07:40:33;1.00;99.90
46976;DHT22;32724;51.094;6.996;2022-11-20T07:42:58;1.00;99.90
46976;DHT22;32724;51.094;6.996;2022-11-20T07:45:24;1.00;99.90
46976;DHT22;32724;51.094;6.996;2022-11-20T07:47:50;1.10;99.90
46976;DHT22;32724;51.094;6.996;2022-11-20T07:50:15;1.20;99.90
46976;DHT22;32724;51.094;6.996;2022-11-20T07:52:41;1.20;99.90
46976;DHT22;32724;51.094;6.996;2022-11-20T07:55:08;1.20;99.90
46976;DHT22;32724;51.094;6.996;2022-11-20T07:57:33;1.10;99.90
46976;DHT22;32724;51.094;6.996;2022-11-20T07:59:59;1.20;99.90
46976;DHT22;32724;51.094;6.996;2022-11-20T08:02:25;1.40;99.90
46976;DHT22;32724;51.094;6.996;2022-11-20T08:04:50;1.80;99.90
46976;DHT22;32724;51.094;6.996;2022-11-20T08:07:16;1.70;99.90
46976;DHT22;32724;51.094;6.996;2022-11-20T08:09:41;1.70;99.90
46976;DHT22;32724;51.094;6.996;2022-11-20T08:12:06;1.70;99.90
46976;DHT22;32724;51.094;6.996;2022-11-20T08:14:51;1.80;99.90
46976;DHT22;32724;51.094;6.996;2022-11-20T08:17:16;2.10;99.90
46976;DHT22;32724;51.094;6.996;2022-11-20T08:19:42;2.20;99.90
46976;DHT22;32724;51.094;6.996;2022-11-20T08:22:07;2.30;99.90
46976;DHT22;32724;51.094;6.996;2022-11-20T08:24:32;2.50;99.90
46976;DHT22;32724;51.094;6.996;2022-11-20T08:26:58;2.40;99.90
46976;DHT22;32724;51.094;6.996;2022-11-20T08:29:26;2.50;99.90
46976;DHT22;32724;51.094;6.996;2022-11-20T08:31:52;2.60;99.90
46976;DHT22;32724;51.094;6.996;2022-11-20T08:34:18;2.80;99.90
46976;DHT22;32724;51.094;6.996;2022-11-20T08:36:43;2.90;99.90
46976;DHT22;32724;51.094;6.996;2022-11-20T08:39:11;2.90;99.90
46976;DHT22;32724;51.094;6.996;2022-11-20T08:41:36;2.90;99.90
46976;DHT22;32724;51.094;6.996;2022-11-20T08:44:02;2.90;99.90
46976;DHT22;32724;51.094;6.996;2022-11-20T08:46:31;2.90;99.90
46976;DHT22;32724;51.094;6.996;2022-11-20T08:48:58;2.90;99.90
46976;DHT22;32724;51.094;6.996;2022-11-20T08:51:24;3.00;99.90
46976;DHT22;32724;51.094;6.996;2022-11-20T08:53:49;2.90;99.90
46976;DHT22;32724;51.094;6.996;2022-11-20T08:56:15;3.00;99.90
46976;DHT22;32724;51.094;6.996;2022-11-20T08:58:40;3.00;99.90
46976;DHT22;32724;51.094;6.996;2022-11-20T09:01:06;3.00;99.90
46976;DHT22;32724;51.094;6.996;2022-11-20T09:03:32;3.00;99.90
46976;DHT22;32724;51.094;6.996;2022-11-20T09:06:02;3.00;99.90
46976;DHT22;32724;51.094;6.996;2022-11-20T09:08:28;3.10;99.90
46976;DHT22;32724;51.094;6.996;2022-11-20T09:10:54;3.10;99.90
46976;DHT22;32724;51.094;6.996;2022-11-20T09:13:20;3.10;99.90
46976;DHT22;32724;51.094;6.996;2022-11-20T09:15:45;3.00;99.90
46976;DHT22;32724;51.094;6.996;2022-11-20T09:18:11;3.20;99.90
46976;DHT22;32724;51.094;6.996;2022-11-20T09:20:36;3.20;99.90
46976;DHT22;32724;51.094;6.996;2022-11-20T09:23:02;3.30;99.90
46976;DHT22;32724;51.094;6.996;2022-11-20T09:25:27;3.30;99.90
46976;DHT22;32724;51.094;6.996;2022-11-20T09:27:56;3.40;99.90
46976;DHT22;32724;51.094;6.996;2022-11-20T09:30:22;3.60;99.90
46976;DHT22;32724;51.094;6.996;2022-11-20T09:32:48;3.70;99.90
46976;DHT22;32724;51.094;6.996;2022-11-20T09:35:13;3.80;99.90
46976;DHT22;32724;51.094;6.996;2022-11-20T09:37:39;3.80;99.90
46976;DHT22;32724;51.094;6.996;2022-11-20T09:40:05;3.80;99.90
46976;DHT22;32724;51.094;6.996;2022-11-20T09:42:45;3.70;99.90
46976;DHT22;32724;51.094;6.996;2022-11-20T09:47:57;3.60;99.90
46976;DHT22;32724;51.094;6.996;2022-11-20T09:50:31;3.60;99.90
46976;DHT22;32724;51.094;6.996;2022-11-20T09:53:08;3.60;99.90
46976;DHT22;32724;51.094;6.996;2022-11-20T09:55:35;3.70;99.90
46976;DHT22;32724;51.094;6.996;2022-11-20T09:58:01;3.80;99.90
46976;DHT22;32724;51.094;6.996;2022-11-20T10:00:27;3.90;99.90
46976;DHT22;32724;51.094;6.996;2022-11-20T10:03:00;3.90;99.90
46976;DHT22;32724;51.094;6.996;2022-11-20T10:05:32;4.00;99.90
46976;DHT22;32724;51.094;6.996;2022-11-20T10:13:01;4.10;99.90
46976;DHT22;32724;51.094;6.996;2022-11-20T10:18:09;4.20;99.90
46976;DHT22;32724;51.094;6.996;2022-11-20T10:23:42;4.20;99.90
46976;DHT22;32724;51.094;6.996;2022-11-20T10:28:59;4.40;99.90
46976;DHT22;32724;51.094;6.996;2022-11-20T10:31:34;4.30;99.90
46976;DHT22;32724;51.094;6.996;2022-11-20T10:34:01;4.30;99.90
46976;DHT22;32724;51.094;6.996;2022-11-20T10:36:30;4.30;99.90
46976;DHT22;32724;51.094;6.996;2022-11-20T10:39:00;4.30;99.90
46976;DHT22;32724;51.094;6.996;2022-11-20T10:41:39;4.50;99.90
46976;DHT22;32724;51.094;6.996;2022-11-20T10:44:12;4.50;99.90
46976;DHT22;32724;51.094;6.996;2022-11-20T10:46:40;4.60;99.90
46976;DHT22;32724;51.094;6.996;2022-11-20T10:49:12;4.40;99.90
46976;DHT22;32724;51.094;6.996;2022-11-20T10:51:59;4.30;99.90
46976;DHT22;32724;51.094;6.996;2022-11-20T10:57:07;4.20;99.90
46976;DHT22;32724;51.094;6.996;2022-11-20T11:02:19;4.30;99.90
46976;DHT22;32724;51.094;6.996;2022-11-20T11:04:54;4.30;99.90
46976;DHT22;32724;51.094;6.996;2022-11-20T11:07:24;4.30;99.90
46976;DHT22;32724;51.094;6.996;2022-11-20T11:09:54;4.30;99.90
46976;DHT22;32724;51.094;6.996;2022-11-20T11:12:21;4.40;99.90
46976;DHT22;32724;51.094;6.996;2022-11-20T11:14:50;4.50;99.90
46976;DHT22;32724;51.094;6.996;2022-11-20T11:17:29;4.60;99.90
46976;DHT22;32724;51.094;6.996;2022-11-20T11:22:28;4.60;99.90
46976;DHT22;32724;51.094;6.996;2022-11-20T11:24:53;4.60;99.90
46976;DHT22;32724;51.094;6.996;2022-11-20T11:30:11;4.30;99.90
46976;DHT22;32724;51.094;6.996;2022-11-20T11:32:37;4.20;99.90
46976;DHT22;32724;51.094;6.996;2022-11-20T11:35:04;4.00;99.90
46976;DHT22;32724;51.094;6.996;2022-11-20T11:37:33;3.80;99.90
46976;DHT22;32724;51.094;6.996;2022-11-20T11:40:00;3.80;99.90
46976;DHT22;32724;51.094;6.996;2022-11-20T11:42:26;4.10;99.90
46976;DHT22;32724;51.094;6.996;2022-11-20T11:44:53;4.40;99.90
46976;DHT22;32724;51.094;6.996;2022-11-20T11:50:16;4.60;99.90
46976;DHT22;32724;51.094;6.996;2022-11-20T11:55:14;4.90;99.90
46976;DHT22;32724;51.094;6.996;2022-11-20T11:57:46;5.10;99.90
46976;DHT22;32724;51.094;6.996;2022-11-20T12:00:13;5.10;99.90
46976;DHT22;32724;51.094;6.996;2022-11-20T12:02:46;5.20;99.90
46976;DHT22;32724;51.094;6.996;2022-11-20T12:07:52;4.90;99.90
46976;DHT22;32724;51.094;6.996;2022-11-20T12:13:20;4.90;99.90
46976;DHT22;32724;51.094;6.996;2022-11-20T12:15:38;5.00;99.90
46976;DHT22;32724;51.094;6.996;2022-11-20T12:18:10;5.10;99.90
46976;DHT22;32724;51.094;6.996;2022-11-20T12:20:40;5.10;99.90
46976;DHT22;32724;51.094;6.996;2022-11-20T12:23:28;5.10;99.90
46976;DHT22;32724;51.094;6.996;2022-11-20T12:25:56;5.20;99.90
46976;DHT22;32724;51.094;6.996;2022-11-20T12:31:14;5.10;99.90
46976;DHT22;32724;51.094;6.996;2022-11-20T12:41:43;5.10;99.90
46976;DHT22;32724;51.094;6.996;2022-11-20T12:47:48;5.10;99.90
46976;DHT22;32724;51.094;6.996;2022-11-20T12:55:42;4.80;99.90
46976;DHT22;32724;51.094;6.996;2022-11-20T12:58:12;4.70;99.90
46976;DHT22;32724;51.094;6.996;2022-11-20T13:00:46;4.60;99.90
46976;DHT22;32724;51.094;6.996;2022-11-20T13:03:20;4.50;99.90
46976;DHT22;32724;51.094;6.996;2022-11-20T13:06:34;4.70;99.90
46976;DHT22;32724;51.094;6.996;2022-11-20T13:08:36;4.90;99.90
46976;DHT22;32724;51.094;6.996;2022-11-20T13:11:03;5.00;99.90
46976;DHT22;32724;51.094;6.996;2022-11-20T13:16:14;5.20;99.90
46976;DHT22;32724;51.094;6.996;2022-11-20T13:18:41;5.20;99.90
46976;DHT22;32724;51.094;6.996;2022-11-20T13:21:14;5.30;99.90
46976;DHT22;32724;51.094;6.996;2022-11-20T13:23:39;5.30;99.90
46976;DHT22;32724;51.094;6.996;2022-11-20T13:26:21;5.40;99.90
46976;DHT22;32724;51.094;6.996;2022-11-20T13:28:48;5.20;99.90
46976;DHT22;32724;51.094;6.996;2022-11-20T13:31:28;5.10;99.90
46976;DHT22;32724;51.094;6.996;2022-11-20T13:33:55;5.10;99.90
46976;DHT22;32724;51.094;6.996;2022-11-20T13:36:21;5.10;99.90
46976;DHT22;32724;51.094;6.996;2022-11-20T13:38:48;5.10;99.90
46976;DHT22;32724;51.094;6.996;2022-11-20T13:41:24;5.10;99.90
46976;DHT22;32724;51.094;6.996;2022-11-20T13:43:53;5.20;99.90
46976;DHT22;32724;51.094;6.996;2022-11-20T13:46:19;5.20;99.90
46976;DHT22;32724;51.094;6.996;2022-11-20T13:48:49;5.20;99.90
46976;DHT22;32724;51.094;6.996;2022-11-20T13:51:25;5.30;99.90
46976;DHT22;32724;51.094;6.996;2022-11-20T13:56:53;5.30;99.90
46976;DHT22;32724;51.094;6.996;2022-11-20T13:59:28;5.30;99.90
46976;DHT22;32724;51.094;6.996;2022-11-20T14:01:56;5.40;99.90
46976;DHT22;32724;51.094;6.996;2022-11-20T14:04:44;5.50;99.90
46976;DHT22;32724;51.094;6.996;2022-11-20T14:07:07;5.50;99.90
46976;DHT22;32724;51.094;6.996;2022-11-20T14:09:34;5.50;99.90
46976;DHT22;32724;51.094;6.996;2022-11-20T14:12:01;5.60;99.90
46976;DHT22;32724;51.094;6.996;2022-11-20T14:14:27;5.50;99.90
46976;DHT22;32724;51.094;6.996;2022-11-20T14:17:04;5.60;99.90
46976;DHT22;32724;51.094;6.996;2022-11-20T14:19:30;5.60;99.90
46976;DHT22;32724;51.094;6.996;2022-11-20T14:24:33;5.50;99.90
46976;DHT22;32724;51.094;6.996;2022-11-20T14:26:58;5.30;99.90
46976;DHT22;32724;51.094;6.996;2022-11-20T14:29:26;5.20;99.90
46976;DHT22;32724;51.094;6.996;2022-11-20T14:31:53;5.30;99.90
46976;DHT22;32724;51.094;6.996;2022-11-20T14:34:21;5.20;99.90
46976;DHT22;32724;51.094;6.996;2022-11-20T14:36:47;5.30;99.90
46976;DHT22;32724;51.094;6.996;2022-11-20T14:39:19;5.30;99.90
46976;DHT22;32724;51.094;6.996;2022-11-20T14:41:51;5.30;99.90
46976;DHT22;32724;51.094;6.996;2022-11-20T14:44:17;5.30;99.90
46976;DHT22;32724;51.094;6.996;2022-11-20T14:46:43;5.30;99.90
46976;DHT22;32724;51.094;6.996;2022-11-20T14:49:08;5.30;99.90
46976;DHT22;32724;51.094;6.996;2022-11-20T14:51:36;5.30;99.90
46976;DHT22;32724;51.094;6.996;2022-11-20T14:54:10;5.30;99.90
46976;DHT22;32724;51.094;6.996;2022-11-20T14:56:36;5.30;99.90
46976;DHT22;32724;51.094;6.996;2022-11-20T14:59:02;5.30;99.90
46976;DHT22;32724;51.094;6.996;2022-11-20T15:01:28;5.30;99.90
46976;DHT22;32724;51.094;6.996;2022-11-20T15:03:59;5.40;99.90
46976;DHT22;32724;51.094;6.996;2022-11-20T15:06:28;5.40;99.90
46976;DHT22;32724;51.094;6.996;2022-11-20T15:08:53;5.50;99.90
46976;DHT22;32724;51.094;6.996;2022-11-20T15:11:19;5.40;99.90
46976;DHT22;32724;51.094;6.996;2022-11-20T15:13:46;5.40;99.90
46976;DHT22;32724;51.094;6.996;2022-11-20T15:16:18;5.40;99.90
46976;DHT22;32724;51.094;6.996;2022-11-20T15:18:44;5.50;99.90
46976;DHT22;32724;51.094;6.996;2022-11-20T15:21:10;5.50;99.90
46976;DHT22;32724;51.094;6.996;2022-11-20T15:23:36;5.50;99.90
46976;DHT22;32724;51.094;6.996;2022-11-20T15:26:04;5.50;99.90
46976;DHT22;32724;51.094;6.996;2022-11-20T15:28:35;5.30;99.90
46976;DHT22;32724;51.094;6.996;2022-11-20T15:31:02;5.20;99.90
46976;DHT22;32724;51.094;6.996;2022-11-20T15:33:28;5.20;99.90
46976;DHT22;32724;51.094;6.996;2022-11-20T15:35:54;5.20;99.90
46976;DHT22;32724;51.094;6.996;2022-11-20T15:38:19;5.10;99.90
46976;DHT22;32724;51.094;6.996;2022-11-20T15:40:45;5.10;99.90
46976;DHT22;32724;51.094;6.996;2022-11-20T15:43:10;5.10;99.90
46976;DHT22;32724;51.094;6.996;2022-11-20T15:45:46;5.20;99.90
46976;DHT22;32724;51.094;6.996;2022-11-20T15:48:15;5.10;99.90
46976;DHT22;32724;51.094;6.996;2022-11-20T15:50:51;5.00;99.90
46976;DHT22;32724;51.094;6.996;2022-11-20T15:53:18;5.10;99.90
46976;DHT22;32724;51.094;6.996;2022-11-20T15:55:44;5.00;99.90
46976;DHT22;32724;51.094;6.996;2022-11-20T15:58:09;5.00;99.90
46976;DHT22;32724;51.094;6.996;2022-11-20T16:00:35;5.00;99.90
46976;DHT22;32724;51.094;6.996;2022-11-20T16:03:00;5.00;99.90
46976;DHT22;32724;51.094;6.996;2022-11-20T16:05:27;5.00;99.90
46976;DHT22;32724;51.094;6.996;2022-11-20T16:07:53;5.10;99.90
46976;DHT22;32724;51.094;6.996;2022-11-20T16:10:18;5.10;99.90
46976;DHT22;32724;51.094;6.996;2022-11-20T16:12:44;5.10;99.90
46976;DHT22;32724;51.094;6.996;2022-11-20T16:15:28;5.10;99.90
46976;DHT22;32724;51.094;6.996;2022-11-20T16:18:19;5.20;99.90
46976;DHT22;32724;51.094;6.996;2022-11-20T16:20:45;5.20;99.90
46976;DHT22;32724;51.094;6.996;2022-11-20T16:23:11;5.20;99.90
46976;DHT22;32724;51.094;6.996;2022-11-20T16:25:37;5.10;99.90
46976;DHT22;32724;51.094;6.996;2022-11-20T16:28:02;5.00;99.90
46976;DHT22;32724;51.094;6.996;2022-11-20T16:30:28;5.10;99.90
46976;DHT22;32724;51.094;6.996;2022-11-20T16:32:54;5.10;99.90
46976;DHT22;32724;51.094;6.996;2022-11-20T16:35:19;5.10;99.90
46976;DHT22;32724;51.094;6.996;2022-11-20T16:37:44;5.20;99.90
46976;DHT22;32724;51.094;6.996;2022-11-20T16:40:10;5.20;99.90
46976;DHT22;32724;51.094;6.996;2022-11-20T16:42:36;5.20;99.90
46976;DHT22;32724;51.094;6.996;2022-11-20T16:45:02;5.20;99.90
46976;DHT22;32724;51.094;6.996;2022-11-20T16:47:28;5.20;99.90
46976;DHT22;32724;51.094;6.996;2022-11-20T16:49:57;5.20;99.90
46976;DHT22;32724;51.094;6.996;2022-11-20T16:52:22;5.30;99.90
46976;DHT22;32724;51.094;6.996;2022-11-20T16:54:48;5.30;99.90
46976;DHT22;32724;51.094;6.996;2022-11-20T16:57:13;5.40;99.90
46976;DHT22;32724;51.094;6.996;2022-11-20T16:59:39;5.40;99.90
46976;DHT22;32724;51.094;6.996;2022-11-20T17:02:04;5.40;99.90
46976;DHT22;32724;51.094;6.996;2022-11-20T17:04:30;5.40;99.90
46976;DHT22;32724;51.094;6.996;2022-11-20T17:06:55;5.50;99.90